createdAt,value
2017-12-21T00:01:27.785Z,43.97
2017-12-21T00:03:56.618Z,46.92
2017-12-21T00:06:24.714Z,45.90
2017-12-21T00:08:52.773Z,41.80
2017-12-21T00:11:20.841Z,40.92
2017-12-21T00:13:48.910Z,46.13
2017-12-21T00:16:16.977Z,36.50
2017-12-21T00:18:45.047Z,33.75
2017-12-21T00:21:13.131Z,35.78
2017-12-21T00:23:41.208Z,32.72
2017-12-21T00:26:09.377Z,34.28
2017-12-21T00:28:37.448Z,34.55
2017-12-21T00:31:05.615Z,31.67
2017-12-21T00:33:33.678Z,29.17
2017-12-21T00:36:01.753Z,36.00
2017-12-21T00:38:29.824Z,31.62
2017-12-21T00:40:57.906Z,40.60
2017-12-21T00:43:25.981Z,25.98
2017-12-21T00:46:11.952Z,34.20
2017-12-21T00:48:40.035Z,30.02
2017-12-21T00:51:08.099Z,29.52
2017-12-21T00:53:36.571Z,25.05
2017-12-21T00:56:04.648Z,27.60
2017-12-21T00:58:33.063Z,29.73
2017-12-21T01:01:01.924Z,24.02
2017-12-21T01:03:30.108Z,22.60
2017-12-21T01:05:58.178Z,27.13
2017-12-21T01:08:26.262Z,32.47
2017-12-21T01:10:54.326Z,25.15
2017-12-21T01:13:22.424Z,28.35
2017-12-21T01:15:50.494Z,25.90
2017-12-21T01:18:19.336Z,26.77
2017-12-21T01:20:47.527Z,28.45
2017-12-21T01:23:15.600Z,30.85
2017-12-21T01:25:43.682Z,28.05
2017-12-21T01:28:12.534Z,24.63
2017-12-21T01:30:40.615Z,25.17
2017-12-21T01:33:09.103Z,23.02
2017-12-21T01:35:37.186Z,24.95
2017-12-21T01:38:05.339Z,27.48
2017-12-21T01:40:33.414Z,34.10
2017-12-21T01:43:01.498Z,29.25
2017-12-21T01:45:29.568Z,25.75
2017-12-21T01:47:58.435Z,27.70
2017-12-21T01:50:26.503Z,22.83
2017-12-21T01:52:54.577Z,27.00
2017-12-21T01:55:22.658Z,23.90
2017-12-21T01:57:50.734Z,27.85
2017-12-21T02:00:18.807Z,25.55
2017-12-21T02:02:46.877Z,19.37
2017-12-21T02:05:16.227Z,27.05
2017-12-21T02:07:44.292Z,19.20
2017-12-21T02:10:12.358Z,25.00
2017-12-21T02:12:40.505Z,25.05
2017-12-21T02:18:40.831Z,20.98
2017-12-21T02:21:08.916Z,24.00
2017-12-21T02:23:37.755Z,21.10
2017-12-21T02:26:05.825Z,23.40
2017-12-21T02:28:33.919Z,20.23
2017-12-21T02:31:01.992Z,21.30
2017-12-21T02:33:30.172Z,20.52
2017-12-21T02:35:58.345Z,16.10
2017-12-21T02:38:26.424Z,18.17
2017-12-21T02:40:54.492Z,21.48
2017-12-21T02:43:22.565Z,19.62
2017-12-21T02:45:50.635Z,18.87
2017-12-21T02:48:18.711Z,14.55
2017-12-21T02:50:47.581Z,15.07
2017-12-21T02:53:15.655Z,22.80
2017-12-21T02:55:43.728Z,17.27
2017-12-21T02:58:11.822Z,15.68
2017-12-21T03:00:40.658Z,18.42
2017-12-21T03:03:08.734Z,16.35
2017-12-21T03:05:36.799Z,20.42
2017-12-21T03:08:04.894Z,14.45
2017-12-21T03:10:32.957Z,17.42
2017-12-21T03:13:01.022Z,15.00
2017-12-21T03:15:29.111Z,16.37
2017-12-21T03:17:57.183Z,13.27
2017-12-21T03:20:25.264Z,22.55
2017-12-21T03:22:53.334Z,12.65
2017-12-21T03:25:22.184Z,13.07
2017-12-21T03:27:50.259Z,14.90
2017-12-21T03:30:18.335Z,16.02
2017-12-21T03:32:46.400Z,14.52
2017-12-21T03:35:14.471Z,15.85
2017-12-21T03:37:42.546Z,16.08
2017-12-21T03:40:10.990Z,13.13
2017-12-21T03:42:39.059Z,15.93
2017-12-21T03:45:07.158Z,15.68
2017-12-21T03:47:35.223Z,15.63
2017-12-21T03:50:03.301Z,14.90
2017-12-21T03:52:31.393Z,17.55
2017-12-21T03:54:59.446Z,16.62
2017-12-21T03:57:27.544Z,16.70
2017-12-21T03:59:55.617Z,20.27
2017-12-21T04:02:23.690Z,15.10
2017-12-21T04:04:52.523Z,17.12
2017-12-21T04:07:20.601Z,22.70
2017-12-21T04:09:48.675Z,20.15
2017-12-21T04:12:16.766Z,21.37
2017-12-21T04:14:44.846Z,18.77
2017-12-21T04:17:12.927Z,22.27
2017-12-21T04:19:41.000Z,24.95
2017-12-21T04:22:09.172Z,18.55
2017-12-21T04:24:37.242Z,20.02
2017-12-21T04:27:05.911Z,22.37
2017-12-21T04:29:33.997Z,18.48
2017-12-21T04:32:02.073Z,24.23
2017-12-21T04:34:30.918Z,25.88
2017-12-21T04:36:58.978Z,23.35
2017-12-21T04:39:27.057Z,23.15
2017-12-21T04:41:55.118Z,28.90
2017-12-21T04:44:23.208Z,21.45
2017-12-21T04:46:51.278Z,21.70
2017-12-21T04:49:19.354Z,18.70
2017-12-21T04:51:47.429Z,20.95
2017-12-21T04:54:15.510Z,22.73
2017-12-21T04:56:43.578Z,19.27
2017-12-21T04:59:11.646Z,22.75
2017-12-21T05:01:39.787Z,24.60
2017-12-21T05:04:07.905Z,25.70
2017-12-21T05:06:36.067Z,19.97
2017-12-21T05:09:04.164Z,23.10
2017-12-21T05:11:32.995Z,17.93
2017-12-21T05:14:01.068Z,18.10
2017-12-21T05:16:29.143Z,25.52
2017-12-21T05:18:57.220Z,19.40
2017-12-21T05:21:25.294Z,18.20
2017-12-21T05:23:54.163Z,19.77
2017-12-21T05:26:22.256Z,18.80
2017-12-21T05:28:50.331Z,18.57
2017-12-21T05:31:18.398Z,18.27
2017-12-21T05:33:46.486Z,23.07
2017-12-21T05:36:14.564Z,19.92
2017-12-21T05:38:42.640Z,19.17
2017-12-21T05:41:11.478Z,23.12
2017-12-21T05:43:39.550Z,24.12
2017-12-21T05:46:07.926Z,19.92
2017-12-21T05:48:35.996Z,18.70
2017-12-21T05:51:04.054Z,26.10
2017-12-21T05:53:32.276Z,20.50
2017-12-21T05:56:01.014Z,21.55
2017-12-21T05:58:29.097Z,25.87
2017-12-21T06:00:57.163Z,28.13
2017-12-21T06:03:25.270Z,22.97
2017-12-21T06:05:53.477Z,24.70
2017-12-21T06:08:21.554Z,21.30
2017-12-21T06:10:49.622Z,22.65
2017-12-21T06:13:18.089Z,23.00
2017-12-21T06:15:47.578Z,16.67
2017-12-21T06:18:15.667Z,19.98
2017-12-21T06:20:44.508Z,22.53
2017-12-21T06:23:12.577Z,19.33
2017-12-21T06:25:40.646Z,21.48
2017-12-21T06:28:08.828Z,24.17
2017-12-21T06:30:37.518Z,17.65
2017-12-21T06:33:05.596Z,16.37
2017-12-21T06:35:33.658Z,23.23
2017-12-21T06:38:01.866Z,19.42
2017-12-21T06:40:30.264Z,17.47
2017-12-21T06:42:58.387Z,16.10
2017-12-21T06:45:26.474Z,15.70
2017-12-21T06:47:54.544Z,20.27
2017-12-21T06:50:26.450Z,16.83
2017-12-21T06:52:54.514Z,20.40
2017-12-21T06:55:22.587Z,14.33
2017-12-21T06:57:50.711Z,19.63
2017-12-21T07:00:18.775Z,15.50
2017-12-21T07:02:46.837Z,15.80
2017-12-21T07:05:14.923Z,16.92
2017-12-21T07:07:43.081Z,17.03
2017-12-21T07:10:11.230Z,17.03
2017-12-21T07:12:39.302Z,18.00
2017-12-21T07:15:07.367Z,25.47
2017-12-21T07:17:35.434Z,14.65
2017-12-21T07:20:03.513Z,16.07
2017-12-21T07:22:31.589Z,15.97
2017-12-21T07:24:59.666Z,17.50
2017-12-21T07:27:27.761Z,16.50
2017-12-21T07:29:55.817Z,15.00
2017-12-21T07:32:23.904Z,13.50
2017-12-21T07:34:51.967Z,14.30
2017-12-21T07:37:20.040Z,12.07
2017-12-21T07:39:48.086Z,21.13
2017-12-21T07:42:16.163Z,18.00
2017-12-21T07:44:44.227Z,16.50
2017-12-21T07:47:12.285Z,16.93
2017-12-21T07:49:40.393Z,15.30
2017-12-21T07:52:08.469Z,15.43
2017-12-21T07:54:37.377Z,17.27
2017-12-21T07:57:06.212Z,16.80
2017-12-21T07:59:34.287Z,17.70
2017-12-21T08:02:02.359Z,16.87
2017-12-21T08:04:30.427Z,16.30
2017-12-21T08:06:58.546Z,16.87
2017-12-21T08:09:26.699Z,16.20
2017-12-21T08:11:54.763Z,17.83
2017-12-21T08:14:22.839Z,14.97
2017-12-21T08:16:50.898Z,17.13
2017-12-21T08:19:19.084Z,14.63
2017-12-21T08:21:47.143Z,14.90
2017-12-21T08:24:15.347Z,19.80
2017-12-21T08:26:44.205Z,14.50
2017-12-21T08:29:12.291Z,15.80
2017-12-21T08:31:41.198Z,18.20
2017-12-21T08:34:10.039Z,16.37
2017-12-21T08:36:38.108Z,16.77
2017-12-21T08:39:06.176Z,16.43
2017-12-21T08:41:34.247Z,17.20
2017-12-21T08:44:02.310Z,15.90
2017-12-21T08:46:30.382Z,18.00
2017-12-21T08:48:58.758Z,19.20
2017-12-21T08:51:26.830Z,16.00
2017-12-21T08:53:54.905Z,18.43
2017-12-21T08:56:22.980Z,18.43
2017-12-21T08:58:51.062Z,23.90
2017-12-21T09:01:19.191Z,19.83
2017-12-21T09:03:47.319Z,16.63
2017-12-21T09:06:15.490Z,14.70
2017-12-21T09:08:43.850Z,19.83
2017-12-21T09:11:11.939Z,16.80
2017-12-21T09:13:40.102Z,18.73
2017-12-21T09:16:08.207Z,15.40
2017-12-21T09:18:36.354Z,22.13
2017-12-21T09:21:04.416Z,15.60
2017-12-21T09:23:32.482Z,13.50
2017-12-21T09:26:00.577Z,14.40
2017-12-21T09:28:28.656Z,16.83
2017-12-21T09:30:56.728Z,16.13
2017-12-21T09:33:24.807Z,17.53
2017-12-21T09:35:53.622Z,14.50
2017-12-21T09:38:21.694Z,14.57
2017-12-21T09:40:49.823Z,16.73
2017-12-21T09:43:17.896Z,13.03
2017-12-21T09:45:46.331Z,12.80
2017-12-21T09:48:14.394Z,14.47
2017-12-21T09:50:42.854Z,13.53
2017-12-21T09:53:10.934Z,22.20
2017-12-21T09:55:39.012Z,13.60
2017-12-21T09:58:07.076Z,12.33
2017-12-21T10:00:35.160Z,13.00
2017-12-21T10:03:03.258Z,11.10
2017-12-21T10:05:31.431Z,14.17
2017-12-21T10:07:59.538Z,11.77
2017-12-21T10:10:28.364Z,13.63
2017-12-21T10:12:56.429Z,11.90
2017-12-21T10:15:24.501Z,12.00
2017-12-21T10:17:52.558Z,12.23
2017-12-21T10:20:20.651Z,13.10
2017-12-21T10:22:48.722Z,15.40
2017-12-21T10:25:16.797Z,14.43
2017-12-21T10:27:45.547Z,12.83
2017-12-21T10:30:14.405Z,11.40
2017-12-21T10:32:42.487Z,14.33
2017-12-21T10:35:10.550Z,13.27
2017-12-21T10:37:38.627Z,12.90
2017-12-21T10:40:06.752Z,13.77
2017-12-21T10:42:35.547Z,11.60
2017-12-21T10:45:19.573Z,12.23
2017-12-21T10:47:47.854Z,13.73
2017-12-21T10:50:15.929Z,15.43
2017-12-21T10:52:44.022Z,13.07
2017-12-21T10:55:12.126Z,14.17
2017-12-21T10:57:40.975Z,13.17
2017-12-21T11:00:09.059Z,14.67
2017-12-21T11:02:37.127Z,15.43
2017-12-21T11:05:05.198Z,15.43
2017-12-21T11:07:33.276Z,12.67
2017-12-21T11:10:04.034Z,13.70
2017-12-21T11:12:32.871Z,13.00
2017-12-21T11:15:00.944Z,13.50
2017-12-21T11:17:29.036Z,14.37
2017-12-21T11:19:57.610Z,19.50
2017-12-21T11:22:25.678Z,17.00
2017-12-21T11:24:53.761Z,14.60
2017-12-21T11:27:21.919Z,12.50
2017-12-21T11:29:50.360Z,18.53
2017-12-21T11:32:18.418Z,13.70
2017-12-21T11:34:46.496Z,18.83
2017-12-21T11:37:14.558Z,28.90
2017-12-21T11:39:42.633Z,16.03
2017-12-21T11:42:10.708Z,18.97
2017-12-21T11:44:38.780Z,22.30
2017-12-21T11:47:06.856Z,14.20
2017-12-21T11:49:34.935Z,14.00
2017-12-21T11:52:03.024Z,14.93
2017-12-21T11:54:31.106Z,16.10
2017-12-21T11:56:59.182Z,17.13
2017-12-21T11:59:27.250Z,16.60
2017-12-21T12:01:55.327Z,21.33
2017-12-21T12:04:23.463Z,16.87
2017-12-21T12:06:51.537Z,18.50
2017-12-21T12:09:19.611Z,18.67
2017-12-21T12:11:47.711Z,18.62
2017-12-21T12:14:16.022Z,27.20
2017-12-21T12:16:44.851Z,16.03
2017-12-21T12:19:13.057Z,17.30
2017-12-21T12:21:41.127Z,16.97
2017-12-21T12:24:09.204Z,19.40
2017-12-21T12:26:37.284Z,16.83
2017-12-21T12:29:07.059Z,15.63
2017-12-21T12:31:35.089Z,17.70
2017-12-21T12:34:03.216Z,16.13
2017-12-21T12:36:31.786Z,17.53
2017-12-21T12:38:59.892Z,17.20
2017-12-21T12:41:28.726Z,16.50
2017-12-21T12:43:56.794Z,16.10
2017-12-21T12:46:24.864Z,17.70
2017-12-21T12:48:52.929Z,16.60
2017-12-21T12:51:21.013Z,17.50
2017-12-21T12:53:49.074Z,18.00
2017-12-21T12:56:17.149Z,20.33
2017-12-21T12:58:45.241Z,17.17
2017-12-21T13:01:13.316Z,18.50
2017-12-21T13:03:41.384Z,19.33
2017-12-21T13:06:09.442Z,16.57
2017-12-21T13:08:37.515Z,17.03
2017-12-21T13:11:05.593Z,16.03
2017-12-21T13:13:33.676Z,19.33
2017-12-21T13:16:01.850Z,15.43
2017-12-21T13:18:29.917Z,18.17
2017-12-21T13:20:58.146Z,17.00
2017-12-21T13:23:26.427Z,15.33
2017-12-21T13:25:54.488Z,19.80
2017-12-21T13:28:23.451Z,19.97
2017-12-21T13:30:52.315Z,18.80
2017-12-21T13:33:20.391Z,19.60
2017-12-21T13:35:48.484Z,17.63
2017-12-21T13:38:17.304Z,18.10
2017-12-21T13:40:45.435Z,20.03
2017-12-21T13:43:14.284Z,20.63
2017-12-21T13:45:42.393Z,20.33
2017-12-21T13:48:10.460Z,23.53
2017-12-21T13:50:38.611Z,18.33
2017-12-21T13:53:06.683Z,20.33
2017-12-21T13:55:34.759Z,16.57
2017-12-21T13:58:02.886Z,16.60
2017-12-21T14:00:30.974Z,16.43
2017-12-21T14:02:59.044Z,18.77
2017-12-21T14:05:27.125Z,24.23
2017-12-21T14:07:55.188Z,19.73
2017-12-21T14:10:24.786Z,18.63
2017-12-21T14:12:52.857Z,19.30
2017-12-21T14:15:20.933Z,19.60
2017-12-21T14:17:49.004Z,26.90
2017-12-21T14:20:17.118Z,19.57
2017-12-21T14:22:45.186Z,22.70
2017-12-21T14:25:13.264Z,18.50
2017-12-21T14:27:42.104Z,18.70
2017-12-21T14:30:10.179Z,22.57
2017-12-21T14:32:38.822Z,18.43
2017-12-21T14:35:07.652Z,18.50
2017-12-21T14:37:35.748Z,20.10
2017-12-21T14:40:04.238Z,18.90
2017-12-21T14:42:32.311Z,21.80
2017-12-21T14:45:00.415Z,22.87
2017-12-21T14:47:28.491Z,20.03
2017-12-21T14:49:56.562Z,25.70
2017-12-21T14:52:24.634Z,16.43
2017-12-21T14:54:52.697Z,20.00
2017-12-21T14:57:20.777Z,18.90
2017-12-21T14:59:48.920Z,18.37
2017-12-21T15:02:17.796Z,16.80
2017-12-21T15:04:46.635Z,17.83
2017-12-21T15:07:14.701Z,20.50
2017-12-21T15:09:42.774Z,20.43
2017-12-21T15:12:10.876Z,20.60
2017-12-21T15:14:38.967Z,19.30
2017-12-21T15:17:07.117Z,20.20
2017-12-21T15:19:35.196Z,19.60
2017-12-21T15:22:03.272Z,23.50
2017-12-21T15:24:31.342Z,18.83
2017-12-21T15:26:59.419Z,19.80
2017-12-21T15:29:27.490Z,18.93
2017-12-21T15:31:55.587Z,17.03
2017-12-21T15:34:23.654Z,18.23
2017-12-21T15:36:52.487Z,24.80
2017-12-21T15:39:20.612Z,19.27
2017-12-21T15:41:49.459Z,22.90
2017-12-21T15:44:17.518Z,23.90
2017-12-21T15:46:46.114Z,22.10
2017-12-21T15:49:15.016Z,19.70
2017-12-21T15:51:43.087Z,22.83
2017-12-21T15:54:11.160Z,19.73
2017-12-21T15:56:39.231Z,20.73
2017-12-21T15:59:07.331Z,18.60
2017-12-21T16:01:36.172Z,19.77
2017-12-21T16:04:04.259Z,26.07
2017-12-21T16:06:32.419Z,16.60
2017-12-21T16:09:00.495Z,20.47
2017-12-21T16:11:28.558Z,18.23
2017-12-21T16:13:56.651Z,18.57
2017-12-21T16:16:24.747Z,19.07
2017-12-21T16:18:53.584Z,18.93
2017-12-21T16:21:21.664Z,18.33
2017-12-21T16:23:49.733Z,20.90
2017-12-21T16:26:17.803Z,24.80
2017-12-21T16:28:45.866Z,16.57
2017-12-21T16:31:13.918Z,19.93
2017-12-21T16:33:42.041Z,20.23
2017-12-21T16:36:10.050Z,16.50
2017-12-21T16:38:38.133Z,24.03
2017-12-21T16:41:06.198Z,25.10
2017-12-21T16:43:34.264Z,19.50
2017-12-21T16:46:02.340Z,20.63
2017-12-21T16:48:30.411Z,19.63
2017-12-21T16:50:58.466Z,18.00
2017-12-21T16:53:26.881Z,16.77
2017-12-21T16:55:54.976Z,20.40
2017-12-21T16:58:23.044Z,20.00
2017-12-21T17:00:51.121Z,19.33
2017-12-21T17:03:19.278Z,20.67
2017-12-21T17:05:48.390Z,16.50
2017-12-21T17:08:16.446Z,16.87
2017-12-21T17:10:45.470Z,15.63
2017-12-21T17:13:14.296Z,19.90
2017-12-21T17:15:42.423Z,15.40
2017-12-21T17:18:11.257Z,21.27
2017-12-21T17:20:39.344Z,24.20
2017-12-21T17:23:08.701Z,19.07
2017-12-21T17:25:37.104Z,25.97
2017-12-21T17:28:05.208Z,23.43
2017-12-21T17:30:35.444Z,20.97
2017-12-21T17:33:03.545Z,17.47
2017-12-21T17:35:31.621Z,25.73
2017-12-21T17:37:59.746Z,33.70
2017-12-21T17:40:27.811Z,23.47
2017-12-21T17:42:55.888Z,24.23
2017-12-21T17:45:23.966Z,28.57
2017-12-21T17:47:52.132Z,21.47
2017-12-21T17:50:20.604Z,20.50
2017-12-21T17:52:48.749Z,23.70
2017-12-21T17:55:17.936Z,21.57
2017-12-21T17:57:46.026Z,23.73
2017-12-21T18:00:14.155Z,21.87
2017-12-21T18:02:43.131Z,19.00
2017-12-21T18:05:11.979Z,19.13
2017-12-21T18:07:42.291Z,19.97
2017-12-21T18:10:10.379Z,20.17
2017-12-21T18:12:38.449Z,15.03
2017-12-21T18:15:07.150Z,15.90
2017-12-21T18:17:35.528Z,22.33
2017-12-21T18:20:04.380Z,20.67
2017-12-21T18:22:32.451Z,26.47
2017-12-21T18:25:00.558Z,22.10
2017-12-21T18:27:28.643Z,17.57
2017-12-21T18:29:57.488Z,22.92
2017-12-21T18:32:25.591Z,22.93
2017-12-21T18:34:53.668Z,20.10
2017-12-21T18:37:21.744Z,18.60
2017-12-21T18:39:49.828Z,20.77
2017-12-21T18:42:18.667Z,18.77
2017-12-21T18:44:46.756Z,20.90
2017-12-21T18:47:14.836Z,20.27
2017-12-21T18:49:42.924Z,26.30
2017-12-21T18:52:11.775Z,21.45
2017-12-21T18:54:39.858Z,22.23
2017-12-21T18:57:07.926Z,22.42
2017-12-21T18:59:36.014Z,23.75
2017-12-21T19:02:04.087Z,25.87
2017-12-21T19:04:32.928Z,18.73
2017-12-21T19:07:01.045Z,23.55
2017-12-21T19:09:29.885Z,20.27
2017-12-21T19:11:57.976Z,20.60
2017-12-21T19:14:26.055Z,25.93
2017-12-21T19:16:54.239Z,23.65
2017-12-21T19:19:22.303Z,23.45
2017-12-21T19:21:50.376Z,22.73
2017-12-21T19:24:18.460Z,20.08
2017-12-21T19:26:47.308Z,22.13
2017-12-21T19:29:15.386Z,19.40
2017-12-21T19:31:43.464Z,23.30
2017-12-21T19:34:11.527Z,25.52
2017-12-21T19:36:39.651Z,25.53
2017-12-21T19:39:08.510Z,22.80
2017-12-21T19:41:36.583Z,20.20
2017-12-21T19:44:04.658Z,24.23
2017-12-21T19:46:33.507Z,24.87
2017-12-21T19:49:01.826Z,18.30
2017-12-21T19:51:29.923Z,20.23
2017-12-21T19:54:01.334Z,21.55
2017-12-21T19:56:29.415Z,23.02
2017-12-21T19:58:57.478Z,19.27
2017-12-21T20:01:27.022Z,23.50
2017-12-21T20:03:55.155Z,23.43
2017-12-21T20:06:23.231Z,21.77
2017-12-21T20:08:52.081Z,17.48
2017-12-21T20:11:20.150Z,17.90
2017-12-21T20:13:48.234Z,21.73
2017-12-21T20:16:16.317Z,20.10
2017-12-21T20:18:44.386Z,18.40
2017-12-21T20:21:12.456Z,18.30
2017-12-21T20:23:40.665Z,20.20
2017-12-21T20:26:12.194Z,28.55
2017-12-21T20:28:40.330Z,19.65
2017-12-21T20:31:08.419Z,23.60
2017-12-21T20:33:36.500Z,24.80
2017-12-21T20:36:04.575Z,20.67
2017-12-21T20:38:32.647Z,22.73
2017-12-21T20:41:00.744Z,23.00
2017-12-21T20:43:28.826Z,27.08
2017-12-21T20:45:56.904Z,23.25
2017-12-21T20:48:25.957Z,25.00
2017-12-21T20:50:54.073Z,29.58
2017-12-21T20:53:22.191Z,23.58
2017-12-21T20:55:50.276Z,28.92
2017-12-21T20:58:19.131Z,28.45
2017-12-21T21:00:47.385Z,30.88
2017-12-21T21:03:15.544Z,30.70
2017-12-21T21:05:43.967Z,29.23
2017-12-21T21:08:12.052Z,26.00
2017-12-21T21:10:40.135Z,33.97
2017-12-21T21:13:08.975Z,30.67
2017-12-21T21:15:37.059Z,28.02
2017-12-21T21:18:05.336Z,39.47
2017-12-21T21:20:33.424Z,32.73
2017-12-21T21:23:01.492Z,32.40
2017-12-21T21:25:29.579Z,34.90
2017-12-21T21:27:58.423Z,30.40
2017-12-21T21:30:26.500Z,33.42
2017-12-21T21:32:54.569Z,27.83
2017-12-21T21:35:22.646Z,32.90
2017-12-21T21:37:50.740Z,35.85
2017-12-21T21:40:18.811Z,35.10
2017-12-21T21:42:46.895Z,31.05
2017-12-21T21:45:15.747Z,32.75
2017-12-21T21:47:43.820Z,32.67
2017-12-21T21:50:12.317Z,42.17
2017-12-21T21:52:40.412Z,38.03
2017-12-21T21:55:09.659Z,44.20
2017-12-21T21:57:37.742Z,47.50
2017-12-21T22:00:05.823Z,33.83
2017-12-21T22:02:33.933Z,37.33
2017-12-21T22:05:02.765Z,42.80
2017-12-21T22:07:30.863Z,40.25
2017-12-21T22:09:58.952Z,44.55
2017-12-21T22:12:27.778Z,38.72
2017-12-21T22:14:55.858Z,50.50
2017-12-21T22:17:23.941Z,45.95
2017-12-21T22:19:52.406Z,36.85
2017-12-21T22:22:20.530Z,43.80
2017-12-21T22:24:49.393Z,41.67
2017-12-21T22:27:17.483Z,40.80
2017-12-21T22:29:46.335Z,40.83
2017-12-21T22:32:14.402Z,39.13
2017-12-21T22:34:42.488Z,44.15
2017-12-21T22:37:10.567Z,45.40
2017-12-21T22:39:38.740Z,46.55
2017-12-21T22:42:06.816Z,39.70
2017-12-21T22:44:34.997Z,41.17
2017-12-21T22:47:03.106Z,39.65
2017-12-21T22:49:31.204Z,38.50
2017-12-21T22:51:59.288Z,40.15
2017-12-21T22:54:27.359Z,42.95
2017-12-21T22:56:55.504Z,38.83
2017-12-21T22:59:23.580Z,33.88
2017-12-21T23:01:51.678Z,37.10
2017-12-21T23:04:19.806Z,35.20
2017-12-21T23:06:47.918Z,34.08
2017-12-21T23:09:16.094Z,43.03
2017-12-21T23:11:44.175Z,32.40
2017-12-21T23:14:12.251Z,34.20
2017-12-21T23:16:40.404Z,36.10
2017-12-21T23:19:08.433Z,33.45
2017-12-21T23:21:36.555Z,36.97
2017-12-21T23:24:04.618Z,31.27
2017-12-21T23:26:32.692Z,33.70
2017-12-21T23:29:00.771Z,33.80
2017-12-21T23:31:28.930Z,44.85
2017-12-21T23:33:56.999Z,33.97
2017-12-21T23:36:25.084Z,39.30
2017-12-21T23:38:53.158Z,47.22
2017-12-21T23:41:21.234Z,30.92
2017-12-21T23:43:49.298Z,48.00
2017-12-21T23:46:17.396Z,29.42
2017-12-21T23:48:46.260Z,34.90
2017-12-21T23:51:14.377Z,38.97
2017-12-21T23:53:42.460Z,37.67
2017-12-21T23:56:10.587Z,37.90
2017-12-21T23:58:38.667Z,34.15
